sensor_id;sensor_type;location;lat;lon;timestamp;P1;durP1;ratioP1;P2;durP2;ratioP2
59512;SDS011;45330;51.634;5.562;2022-12-07T00:00:52;32.40;;;17.92;;
59512;SDS011;45330;51.634;5.562;2022-12-07T00:03:18;31.02;;;17.55;;
59512;SDS011;45330;51.634;5.562;2022-12-07T00:05:44;31.73;;;17.85;;
59512;SDS011;45330;51.634;5.562;2022-12-07T00:08:09;31.98;;;17.80;;
59512;SDS011;45330;51.634;5.562;2022-12-07T00:10:34;32.63;;;18.40;;
59512;SDS011;45330;51.634;5.562;2022-12-07T00:13:00;35.97;;;18.15;;
59512;SDS011;45330;51.634;5.562;2022-12-07T00:15:25;31.40;;;17.38;;
59512;SDS011;45330;51.634;5.562;2022-12-07T00:17:51;32.83;;;17.70;;
59512;SDS011;45330;51.634;5.562;2022-12-07T00:20:16;36.90;;;18.05;;
59512;SDS011;45330;51.634;5.562;2022-12-07T00:22:41;33.88;;;18.58;;
59512;SDS011;45330;51.634;5.562;2022-12-07T00:25:07;33.47;;;18.75;;
59512;SDS011;45330;51.634;5.562;2022-12-07T00:27:32;31.85;;;18.25;;
59512;SDS011;45330;51.634;5.562;2022-12-07T00:29:58;33.63;;;18.40;;
59512;SDS011;45330;51.634;5.562;2022-12-07T00:32:23;34.25;;;18.90;;
59512;SDS011;45330;51.634;5.562;2022-12-07T00:34:48;36.63;;;19.50;;
59512;SDS011;45330;51.634;5.562;2022-12-07T00:37:14;36.92;;;19.33;;
59512;SDS011;45330;51.634;5.562;2022-12-07T00:39:39;37.78;;;20.02;;
59512;SDS011;45330;51.634;5.562;2022-12-07T00:42:04;34.80;;;19.20;;
59512;SDS011;45330;51.634;5.562;2022-12-07T00:44:30;35.55;;;19.35;;
59512;SDS011;45330;51.634;5.562;2022-12-07T00:46:55;36.40;;;20.30;;
59512;SDS011;45330;51.634;5.562;2022-12-07T00:49:21;35.20;;;19.98;;
59512;SDS011;45330;51.634;5.562;2022-12-07T00:51:47;37.88;;;20.15;;
59512;SDS011;45330;51.634;5.562;2022-12-07T00:54:13;38.38;;;19.95;;
59512;SDS011;45330;51.634;5.562;2022-12-07T00:56:38;38.00;;;20.10;;
59512;SDS011;45330;51.634;5.562;2022-12-07T00:59:04;36.78;;;20.60;;
59512;SDS011;45330;51.634;5.562;2022-12-07T01:01:31;37.65;;;19.65;;
59512;SDS011;45330;51.634;5.562;2022-12-07T01:03:59;37.55;;;19.75;;
59512;SDS011;45330;51.634;5.562;2022-12-07T01:06:26;38.45;;;20.70;;
59512;SDS011;45330;51.634;5.562;2022-12-07T01:08:52;38.03;;;20.42;;
59512;SDS011;45330;51.634;5.562;2022-12-07T01:11:19;41.92;;;19.85;;
59512;SDS011;45330;51.634;5.562;2022-12-07T01:13:46;39.60;;;19.75;;
59512;SDS011;45330;51.634;5.562;2022-12-07T01:16:14;38.13;;;20.15;;
59512;SDS011;45330;51.634;5.562;2022-12-07T01:18:41;36.60;;;20.00;;
59512;SDS011;45330;51.634;5.562;2022-12-07T01:21:17;33.33;;;18.40;;
59512;SDS011;45330;51.634;5.562;2022-12-07T01:23:45;36.97;;;19.23;;
59512;SDS011;45330;51.634;5.562;2022-12-07T01:26:12;38.03;;;19.60;;
59512;SDS011;45330;51.634;5.562;2022-12-07T01:28:40;39.05;;;19.42;;
59512;SDS011;45330;51.634;5.562;2022-12-07T01:31:06;36.17;;;18.48;;
59512;SDS011;45330;51.634;5.562;2022-12-07T01:33:36;37.92;;;19.27;;
59512;SDS011;45330;51.634;5.562;2022-12-07T01:36:03;36.80;;;18.95;;
59512;SDS011;45330;51.634;5.562;2022-12-07T01:38:31;36.17;;;18.60;;
59512;SDS011;45330;51.634;5.562;2022-12-07T01:40:58;38.72;;;19.67;;
59512;SDS011;45330;51.634;5.562;2022-12-07T01:43:25;39.75;;;19.92;;
59512;SDS011;45330;51.634;5.562;2022-12-07T01:45:52;41.17;;;19.00;;
59512;SDS011;45330;51.634;5.562;2022-12-07T01:48:18;37.25;;;19.33;;
59512;SDS011;45330;51.634;5.562;2022-12-07T01:50:48;38.30;;;18.58;;
59512;SDS011;45330;51.634;5.562;2022-12-07T01:53:16;37.50;;;20.00;;
59512;SDS011;45330;51.634;5.562;2022-12-07T01:55:44;38.58;;;19.38;;
59512;SDS011;45330;51.634;5.562;2022-12-07T01:58:12;37.20;;;18.83;;
59512;SDS011;45330;51.634;5.562;2022-12-07T02:00:40;37.08;;;18.70;;
59512;SDS011;45330;51.634;5.562;2022-12-07T02:03:11;36.60;;;18.45;;
59512;SDS011;45330;51.634;5.562;2022-12-07T02:05:44;36.40;;;18.98;;
59512;SDS011;45330;51.634;5.562;2022-12-07T02:08:11;39.58;;;19.13;;
59512;SDS011;45330;51.634;5.562;2022-12-07T02:10:37;36.88;;;18.25;;
59512;SDS011;45330;51.634;5.562;2022-12-07T02:13:37;35.58;;;19.08;;
59512;SDS011;45330;51.634;5.562;2022-12-07T02:16:00;35.05;;;17.23;;
59512;SDS011;45330;51.634;5.562;2022-12-07T02:38:18;35.92;;;17.33;;
59512;SDS011;45330;51.634;5.562;2022-12-07T02:40:51;35.88;;;17.33;;
59512;SDS011;45330;51.634;5.562;2022-12-07T02:43:21;36.70;;;17.08;;
59512;SDS011;45330;51.634;5.562;2022-12-07T02:45:51;35.85;;;16.50;;
59512;SDS011;45330;51.634;5.562;2022-12-07T02:48:19;33.25;;;16.30;;
59512;SDS011;45330;51.634;5.562;2022-12-07T02:50:50;33.35;;;16.92;;
59512;SDS011;45330;51.634;5.562;2022-12-07T03:04:50;32.78;;;15.90;;
59512;SDS011;45330;51.634;5.562;2022-12-07T03:13:12;33.65;;;17.80;;
59512;SDS011;45330;51.634;5.562;2022-12-07T03:18:29;37.38;;;18.23;;
59512;SDS011;45330;51.634;5.562;2022-12-07T03:20:58;37.00;;;18.02;;
59512;SDS011;45330;51.634;5.562;2022-12-07T03:23:27;37.00;;;17.38;;
59512;SDS011;45330;51.634;5.562;2022-12-07T03:25:58;36.70;;;17.73;;
59512;SDS011;45330;51.634;5.562;2022-12-07T03:28:26;36.58;;;17.77;;
59512;SDS011;45330;51.634;5.562;2022-12-07T03:31:03;34.22;;;16.85;;
59512;SDS011;45330;51.634;5.562;2022-12-07T03:33:40;35.63;;;16.92;;
59512;SDS011;45330;51.634;5.562;2022-12-07T03:36:17;35.92;;;17.27;;
59512;SDS011;45330;51.634;5.562;2022-12-07T03:38:56;35.55;;;17.42;;
59512;SDS011;45330;51.634;5.562;2022-12-07T03:41:32;32.63;;;16.65;;
59512;SDS011;45330;51.634;5.562;2022-12-07T03:44:00;34.78;;;17.15;;
59512;SDS011;45330;51.634;5.562;2022-12-07T03:46:37;36.22;;;17.38;;
59512;SDS011;45330;51.634;5.562;2022-12-07T03:49:13;36.30;;;15.85;;
59512;SDS011;45330;51.634;5.562;2022-12-07T03:54:34;32.05;;;14.98;;
59512;SDS011;45330;51.634;5.562;2022-12-07T03:57:04;30.95;;;15.10;;
59512;SDS011;45330;51.634;5.562;2022-12-07T03:59:31;32.10;;;14.27;;
59512;SDS011;45330;51.634;5.562;2022-12-07T04:02:01;32.80;;;15.23;;
59512;SDS011;45330;51.634;5.562;2022-12-07T04:04:28;32.92;;;14.82;;
59512;SDS011;45330;51.634;5.562;2022-12-07T04:06:54;29.95;;;13.40;;
59512;SDS011;45330;51.634;5.562;2022-12-07T04:09:19;30.83;;;13.35;;
59512;SDS011;45330;51.634;5.562;2022-12-07T04:11:45;29.92;;;13.00;;
59512;SDS011;45330;51.634;5.562;2022-12-07T04:14:11;30.73;;;12.68;;
59512;SDS011;45330;51.634;5.562;2022-12-07T04:16:49;29.70;;;12.27;;
59512;SDS011;45330;51.634;5.562;2022-12-07T04:19:18;27.17;;;12.65;;
59512;SDS011;45330;51.634;5.562;2022-12-07T04:21:45;27.65;;;11.45;;
59512;SDS011;45330;51.634;5.562;2022-12-07T04:24:11;29.90;;;11.65;;
59512;SDS011;45330;51.634;5.562;2022-12-07T04:26:38;29.33;;;11.95;;
59512;SDS011;45330;51.634;5.562;2022-12-07T04:29:03;28.02;;;11.93;;
59512;SDS011;45330;51.634;5.562;2022-12-07T04:31:29;28.60;;;11.68;;
59512;SDS011;45330;51.634;5.562;2022-12-07T04:33:54;27.15;;;11.23;;
59512;SDS011;45330;51.634;5.562;2022-12-07T04:36:19;27.77;;;11.57;;
59512;SDS011;45330;51.634;5.562;2022-12-07T04:38:45;27.02;;;11.43;;
59512;SDS011;45330;51.634;5.562;2022-12-07T04:41:11;25.90;;;10.68;;
59512;SDS011;45330;51.634;5.562;2022-12-07T04:43:37;25.30;;;11.05;;
59512;SDS011;45330;51.634;5.562;2022-12-07T04:46:02;26.42;;;10.98;;
59512;SDS011;45330;51.634;5.562;2022-12-07T04:48:28;26.38;;;10.90;;
59512;SDS011;45330;51.634;5.562;2022-12-07T04:50:53;27.15;;;11.23;;
59512;SDS011;45330;51.634;5.562;2022-12-07T04:53:18;24.75;;;10.63;;
59512;SDS011;45330;51.634;5.562;2022-12-07T04:55:44;26.83;;;10.55;;
59512;SDS011;45330;51.634;5.562;2022-12-07T04:58:10;24.08;;;9.90;;
59512;SDS011;45330;51.634;5.562;2022-12-07T05:00:36;26.48;;;10.32;;
59512;SDS011;45330;51.634;5.562;2022-12-07T05:03:01;29.25;;;10.15;;
59512;SDS011;45330;51.634;5.562;2022-12-07T05:05:27;26.98;;;10.70;;
59512;SDS011;45330;51.634;5.562;2022-12-07T05:07:52;27.27;;;10.60;;
59512;SDS011;45330;51.634;5.562;2022-12-07T05:10:17;27.88;;;10.25;;
59512;SDS011;45330;51.634;5.562;2022-12-07T05:12:43;25.55;;;10.57;;
59512;SDS011;45330;51.634;5.562;2022-12-07T05:15:08;25.40;;;10.40;;
59512;SDS011;45330;51.634;5.562;2022-12-07T05:17:34;25.35;;;10.55;;
59512;SDS011;45330;51.634;5.562;2022-12-07T05:19:59;25.15;;;9.65;;
59512;SDS011;45330;51.634;5.562;2022-12-07T05:22:24;24.75;;;10.10;;
59512;SDS011;45330;51.634;5.562;2022-12-07T05:24:53;28.10;;;10.60;;
59512;SDS011;45330;51.634;5.562;2022-12-07T05:27:19;25.67;;;10.65;;
59512;SDS011;45330;51.634;5.562;2022-12-07T05:29:45;25.15;;;9.93;;
59512;SDS011;45330;51.634;5.562;2022-12-07T05:32:10;28.40;;;10.10;;
59512;SDS011;45330;51.634;5.562;2022-12-07T05:34:36;26.90;;;9.98;;
59512;SDS011;45330;51.634;5.562;2022-12-07T05:37:01;29.13;;;10.63;;
59512;SDS011;45330;51.634;5.562;2022-12-07T05:39:26;28.27;;;10.20;;
59512;SDS011;45330;51.634;5.562;2022-12-07T05:41:52;25.35;;;10.27;;
59512;SDS011;45330;51.634;5.562;2022-12-07T05:44:36;27.60;;;11.02;;
59512;SDS011;45330;51.634;5.562;2022-12-07T05:47:01;25.85;;;10.65;;
59512;SDS011;45330;51.634;5.562;2022-12-07T05:49:27;26.75;;;10.50;;
59512;SDS011;45330;51.634;5.562;2022-12-07T05:51:52;26.45;;;10.73;;
59512;SDS011;45330;51.634;5.562;2022-12-07T05:54:17;26.38;;;11.05;;
59512;SDS011;45330;51.634;5.562;2022-12-07T05:56:43;26.45;;;11.18;;
59512;SDS011;45330;51.634;5.562;2022-12-07T05:59:08;26.42;;;10.00;;
59512;SDS011;45330;51.634;5.562;2022-12-07T06:01:58;25.97;;;9.63;;
59512;SDS011;45330;51.634;5.562;2022-12-07T06:04:27;28.13;;;10.63;;
59512;SDS011;45330;51.634;5.562;2022-12-07T06:09:22;24.42;;;9.10;;
59512;SDS011;45330;51.634;5.562;2022-12-07T06:11:48;24.63;;;9.52;;
59512;SDS011;45330;51.634;5.562;2022-12-07T06:14:32;27.83;;;9.25;;
59512;SDS011;45330;51.634;5.562;2022-12-07T06:16:58;26.27;;;9.18;;
59512;SDS011;45330;51.634;5.562;2022-12-07T06:19:24;25.70;;;10.13;;
59512;SDS011;45330;51.634;5.562;2022-12-07T06:21:50;25.98;;;10.13;;
59512;SDS011;45330;51.634;5.562;2022-12-07T06:24:16;29.15;;;10.18;;
59512;SDS011;45330;51.634;5.562;2022-12-07T06:26:42;27.50;;;10.30;;
59512;SDS011;45330;51.634;5.562;2022-12-07T06:29:08;26.77;;;11.35;;
59512;SDS011;45330;51.634;5.562;2022-12-07T06:31:35;29.60;;;12.55;;
59512;SDS011;45330;51.634;5.562;2022-12-07T06:34:01;33.17;;;12.95;;
59512;SDS011;45330;51.634;5.562;2022-12-07T06:36:28;32.65;;;13.50;;
59512;SDS011;45330;51.634;5.562;2022-12-07T06:38:54;35.08;;;14.15;;
59512;SDS011;45330;51.634;5.562;2022-12-07T06:41:20;32.70;;;15.38;;
59512;SDS011;45330;51.634;5.562;2022-12-07T06:43:45;32.90;;;15.20;;
59512;SDS011;45330;51.634;5.562;2022-12-07T06:46:12;35.80;;;15.32;;
59512;SDS011;45330;51.634;5.562;2022-12-07T06:48:39;33.50;;;15.90;;
59512;SDS011;45330;51.634;5.562;2022-12-07T06:51:04;33.78;;;15.68;;
59512;SDS011;45330;51.634;5.562;2022-12-07T06:53:30;35.63;;;16.15;;
59512;SDS011;45330;51.634;5.562;2022-12-07T06:55:55;34.05;;;15.38;;
59512;SDS011;45330;51.634;5.562;2022-12-07T06:58:20;31.35;;;15.10;;
59512;SDS011;45330;51.634;5.562;2022-12-07T07:00:47;33.53;;;15.52;;
59512;SDS011;45330;51.634;5.562;2022-12-07T07:03:13;34.88;;;15.00;;
59512;SDS011;45330;51.634;5.562;2022-12-07T07:05:38;34.47;;;15.50;;
59512;SDS011;45330;51.634;5.562;2022-12-07T07:08:04;36.90;;;15.10;;
59512;SDS011;45330;51.634;5.562;2022-12-07T07:10:29;34.85;;;16.70;;
59512;SDS011;45330;51.634;5.562;2022-12-07T07:12:55;36.15;;;16.27;;
59512;SDS011;45330;51.634;5.562;2022-12-07T07:15:20;39.95;;;17.27;;
59512;SDS011;45330;51.634;5.562;2022-12-07T07:17:46;38.38;;;16.70;;
59512;SDS011;45330;51.634;5.562;2022-12-07T07:20:11;36.20;;;16.63;;
59512;SDS011;45330;51.634;5.562;2022-12-07T07:22:37;35.15;;;15.82;;
59512;SDS011;45330;51.634;5.562;2022-12-07T07:25:02;37.08;;;16.33;;
59512;SDS011;45330;51.634;5.562;2022-12-07T07:27:28;39.35;;;17.40;;
59512;SDS011;45330;51.634;5.562;2022-12-07T07:29:54;34.05;;;15.73;;
59512;SDS011;45330;51.634;5.562;2022-12-07T07:32:19;33.53;;;15.68;;
59512;SDS011;45330;51.634;5.562;2022-12-07T07:34:46;37.75;;;15.82;;
59512;SDS011;45330;51.634;5.562;2022-12-07T07:37:12;33.05;;;15.13;;
59512;SDS011;45330;51.634;5.562;2022-12-07T07:39:37;31.35;;;14.85;;
59512;SDS011;45330;51.634;5.562;2022-12-07T07:42:03;31.17;;;15.32;;
59512;SDS011;45330;51.634;5.562;2022-12-07T07:44:29;36.60;;;16.25;;
59512;SDS011;45330;51.634;5.562;2022-12-07T07:46:54;34.28;;;15.85;;
59512;SDS011;45330;51.634;5.562;2022-12-07T07:49:20;32.17;;;16.17;;
59512;SDS011;45330;51.634;5.562;2022-12-07T07:51:45;32.80;;;16.75;;
59512;SDS011;45330;51.634;5.562;2022-12-07T07:54:10;36.78;;;17.13;;
59512;SDS011;45330;51.634;5.562;2022-12-07T07:56:36;37.50;;;17.08;;
59512;SDS011;45330;51.634;5.562;2022-12-07T07:59:01;36.30;;;17.75;;
59512;SDS011;45330;51.634;5.562;2022-12-07T08:01:27;38.83;;;17.95;;
59512;SDS011;45330;51.634;5.562;2022-12-07T08:03:52;42.42;;;19.35;;
59512;SDS011;45330;51.634;5.562;2022-12-07T08:06:18;34.47;;;17.08;;
59512;SDS011;45330;51.634;5.562;2022-12-07T08:08:43;41.65;;;20.45;;
59512;SDS011;45330;51.634;5.562;2022-12-07T08:11:09;40.45;;;20.13;;
59512;SDS011;45330;51.634;5.562;2022-12-07T08:13:34;38.53;;;18.27;;
59512;SDS011;45330;51.634;5.562;2022-12-07T08:16:04;32.78;;;16.20;;
59512;SDS011;45330;51.634;5.562;2022-12-07T08:18:34;40.15;;;15.30;;
59512;SDS011;45330;51.634;5.562;2022-12-07T08:21:01;36.35;;;15.48;;
59512;SDS011;45330;51.634;5.562;2022-12-07T08:23:27;35.75;;;15.95;;
59512;SDS011;45330;51.634;5.562;2022-12-07T08:25:52;33.35;;;14.38;;
59512;SDS011;45330;51.634;5.562;2022-12-07T08:28:18;37.03;;;15.07;;
59512;SDS011;45330;51.634;5.562;2022-12-07T08:30:43;32.40;;;14.65;;
59512;SDS011;45330;51.634;5.562;2022-12-07T08:33:09;31.60;;;15.20;;
59512;SDS011;45330;51.634;5.562;2022-12-07T08:35:35;31.63;;;13.43;;
59512;SDS011;45330;51.634;5.562;2022-12-07T08:38:01;32.30;;;13.85;;
59512;SDS011;45330;51.634;5.562;2022-12-07T08:40:27;29.75;;;12.90;;
59512;SDS011;45330;51.634;5.562;2022-12-07T08:42:53;32.53;;;13.35;;
59512;SDS011;45330;51.634;5.562;2022-12-07T08:45:19;32.45;;;13.55;;
59512;SDS011;45330;51.634;5.562;2022-12-07T08:47:50;30.15;;;13.35;;
59512;SDS011;45330;51.634;5.562;2022-12-07T08:50:19;33.25;;;13.70;;
59512;SDS011;45330;51.634;5.562;2022-12-07T08:52:50;32.60;;;13.50;;
59512;SDS011;45330;51.634;5.562;2022-12-07T08:55:18;29.85;;;13.02;;
59512;SDS011;45330;51.634;5.562;2022-12-07T08:57:44;31.15;;;13.27;;
59512;SDS011;45330;51.634;5.562;2022-12-07T09:00:09;31.65;;;13.68;;
59512;SDS011;45330;51.634;5.562;2022-12-07T09:02:35;28.65;;;12.82;;
59512;SDS011;45330;51.634;5.562;2022-12-07T09:05:01;28.50;;;12.80;;
59512;SDS011;45330;51.634;5.562;2022-12-07T09:07:26;31.30;;;13.05;;
59512;SDS011;45330;51.634;5.562;2022-12-07T09:09:52;31.88;;;13.00;;
59512;SDS011;45330;51.634;5.562;2022-12-07T09:12:17;32.85;;;13.10;;
59512;SDS011;45330;51.634;5.562;2022-12-07T09:14:43;26.85;;;12.27;;
59512;SDS011;45330;51.634;5.562;2022-12-07T09:17:09;30.25;;;12.23;;
59512;SDS011;45330;51.634;5.562;2022-12-07T09:19:37;29.88;;;11.65;;
59512;SDS011;45330;51.634;5.562;2022-12-07T09:22:03;30.55;;;11.45;;
59512;SDS011;45330;51.634;5.562;2022-12-07T09:24:29;30.48;;;12.70;;
59512;SDS011;45330;51.634;5.562;2022-12-07T09:26:55;26.60;;;11.13;;
59512;SDS011;45330;51.634;5.562;2022-12-07T09:29:20;24.75;;;10.55;;
59512;SDS011;45330;51.634;5.562;2022-12-07T09:31:46;24.38;;;9.60;;
59512;SDS011;45330;51.634;5.562;2022-12-07T09:34:11;28.25;;;10.40;;
59512;SDS011;45330;51.634;5.562;2022-12-07T09:36:37;28.45;;;10.38;;
59512;SDS011;45330;51.634;5.562;2022-12-07T09:39:03;24.60;;;9.23;;
59512;SDS011;45330;51.634;5.562;2022-12-07T09:41:30;23.60;;;9.00;;
59512;SDS011;45330;51.634;5.562;2022-12-07T09:43:59;28.23;;;9.50;;
59512;SDS011;45330;51.634;5.562;2022-12-07T09:46:29;24.35;;;8.27;;
59512;SDS011;45330;51.634;5.562;2022-12-07T09:49:00;25.13;;;8.45;;
59512;SDS011;45330;51.634;5.562;2022-12-07T09:51:26;22.25;;;7.82;;
59512;SDS011;45330;51.634;5.562;2022-12-07T09:53:52;23.45;;;8.43;;
59512;SDS011;45330;51.634;5.562;2022-12-07T09:56:19;25.58;;;8.52;;
59512;SDS011;45330;51.634;5.562;2022-12-07T09:58:46;24.17;;;8.57;;
59512;SDS011;45330;51.634;5.562;2022-12-07T10:01:14;23.00;;;9.05;;
59512;SDS011;45330;51.634;5.562;2022-12-07T10:06:38;21.50;;;7.63;;
59512;SDS011;45330;51.634;5.562;2022-12-07T10:09:14;19.48;;;7.45;;
59512;SDS011;45330;51.634;5.562;2022-12-07T10:14:28;19.90;;;6.20;;
59512;SDS011;45330;51.634;5.562;2022-12-07T10:16:55;18.25;;;6.05;;
59512;SDS011;45330;51.634;5.562;2022-12-07T10:19:25;18.48;;;5.40;;
59512;SDS011;45330;51.634;5.562;2022-12-07T10:21:59;16.77;;;5.55;;
59512;SDS011;45330;51.634;5.562;2022-12-07T10:24:37;20.88;;;5.57;;
59512;SDS011;45330;51.634;5.562;2022-12-07T10:27:11;20.83;;;5.80;;
59512;SDS011;45330;51.634;5.562;2022-12-07T10:29:54;12.70;;;4.90;;
59512;SDS011;45330;51.634;5.562;2022-12-07T10:34:45;16.88;;;4.88;;
59512;SDS011;45330;51.634;5.562;2022-12-07T10:42:24;15.07;;;4.40;;
59512;SDS011;45330;51.634;5.562;2022-12-07T10:45:12;13.18;;;4.10;;
59512;SDS011;45330;51.634;5.562;2022-12-07T11:07:22;16.35;;;3.67;;
59512;SDS011;45330;51.634;5.562;2022-12-07T11:10:18;11.25;;;3.60;;
59512;SDS011;45330;51.634;5.562;2022-12-07T11:15:42;12.98;;;4.03;;
59512;SDS011;45330;51.634;5.562;2022-12-07T11:26:50;16.30;;;5.28;;
59512;SDS011;45330;51.634;5.562;2022-12-07T11:32:42;17.42;;;5.00;;
59512;SDS011;45330;51.634;5.562;2022-12-07T11:37:49;15.43;;;3.88;;
59512;SDS011;45330;51.634;5.562;2022-12-07T11:40:21;19.98;;;4.15;;
59512;SDS011;45330;51.634;5.562;2022-12-07T11:46:02;15.30;;;4.13;;
59512;SDS011;45330;51.634;5.562;2022-12-07T11:48:35;13.98;;;3.67;;
59512;SDS011;45330;51.634;5.562;2022-12-07T11:51:04;12.77;;;4.20;;
59512;SDS011;45330;51.634;5.562;2022-12-07T11:53:38;13.90;;;3.80;;
59512;SDS011;45330;51.634;5.562;2022-12-07T11:58:48;16.88;;;4.60;;
59512;SDS011;45330;51.634;5.562;2022-12-07T12:04:01;16.05;;;4.50;;
59512;SDS011;45330;51.634;5.562;2022-12-07T12:06:32;16.10;;;4.00;;
59512;SDS011;45330;51.634;5.562;2022-12-07T12:09:11;13.73;;;4.00;;
59512;SDS011;45330;51.634;5.562;2022-12-07T12:12:07;15.23;;;4.03;;
59512;SDS011;45330;51.634;5.562;2022-12-07T12:22:45;14.43;;;3.35;;
59512;SDS011;45330;51.634;5.562;2022-12-07T12:25:24;15.65;;;3.45;;
59512;SDS011;45330;51.634;5.562;2022-12-07T12:27:53;14.75;;;3.60;;
59512;SDS011;45330;51.634;5.562;2022-12-07T12:30:37;11.43;;;2.40;;
59512;SDS011;45330;51.634;5.562;2022-12-07T12:33:05;12.10;;;2.50;;
59512;SDS011;45330;51.634;5.562;2022-12-07T12:35:40;12.73;;;2.45;;
59512;SDS011;45330;51.634;5.562;2022-12-07T12:39:07;11.55;;;2.60;;
59512;SDS011;45330;51.634;5.562;2022-12-07T12:40:59;14.30;;;2.80;;
59512;SDS011;45330;51.634;5.562;2022-12-07T12:43:46;9.68;;;2.70;;
59512;SDS011;45330;51.634;5.562;2022-12-07T12:49:14;10.85;;;2.65;;
59512;SDS011;45330;51.634;5.562;2022-12-07T12:51:52;12.80;;;2.30;;
59512;SDS011;45330;51.634;5.562;2022-12-07T13:04:50;14.73;;;3.55;;
59512;SDS011;45330;51.634;5.562;2022-12-07T13:10:20;10.23;;;2.63;;
59512;SDS011;45330;51.634;5.562;2022-12-07T13:20:46;10.68;;;3.10;;
59512;SDS011;45330;51.634;5.562;2022-12-07T13:23:13;13.52;;;3.17;;
59512;SDS011;45330;51.634;5.562;2022-12-07T13:28:41;18.10;;;4.30;;
59512;SDS011;45330;51.634;5.562;2022-12-07T13:31:11;14.88;;;3.25;;
59512;SDS011;45330;51.634;5.562;2022-12-07T13:33:36;13.50;;;3.80;;
59512;SDS011;45330;51.634;5.562;2022-12-07T13:36:02;13.30;;;3.65;;
59512;SDS011;45330;51.634;5.562;2022-12-07T13:38:29;12.82;;;3.78;;
59512;SDS011;45330;51.634;5.562;2022-12-07T13:41:16;17.08;;;3.78;;
59512;SDS011;45330;51.634;5.562;2022-12-07T13:44:00;15.93;;;4.32;;
59512;SDS011;45330;51.634;5.562;2022-12-07T13:51:45;11.95;;;2.80;;
59512;SDS011;45330;51.634;5.562;2022-12-07T13:54:11;9.95;;;2.83;;
59512;SDS011;45330;51.634;5.562;2022-12-07T13:56:38;12.55;;;2.70;;
59512;SDS011;45330;51.634;5.562;2022-12-07T13:59:14;9.18;;;2.63;;
59512;SDS011;45330;51.634;5.562;2022-12-07T14:01:44;11.73;;;2.92;;
59512;SDS011;45330;51.634;5.562;2022-12-07T14:06:48;11.32;;;2.45;;
59512;SDS011;45330;51.634;5.562;2022-12-07T14:09:18;8.20;;;2.35;;
59512;SDS011;45330;51.634;5.562;2022-12-07T14:11:46;9.75;;;2.38;;
59512;SDS011;45330;51.634;5.562;2022-12-07T14:14:15;9.60;;;2.15;;
59512;SDS011;45330;51.634;5.562;2022-12-07T14:16:43;9.30;;;2.17;;
59512;SDS011;45330;51.634;5.562;2022-12-07T14:27:49;9.85;;;3.22;;
59512;SDS011;45330;51.634;5.562;2022-12-07T14:30:22;14.18;;;4.15;;
59512;SDS011;45330;51.634;5.562;2022-12-07T14:32:51;11.35;;;2.35;;
59512;SDS011;45330;51.634;5.562;2022-12-07T14:35:19;5.45;;;1.13;;
59512;SDS011;45330;51.634;5.562;2022-12-07T14:37:46;4.60;;;1.20;;
59512;SDS011;45330;51.634;5.562;2022-12-07T14:40:14;6.00;;;1.50;;
59512;SDS011;45330;51.634;5.562;2022-12-07T14:42:41;5.15;;;1.58;;
59512;SDS011;45330;51.634;5.562;2022-12-07T14:45:12;9.88;;;1.58;;
59512;SDS011;45330;51.634;5.562;2022-12-07T14:47:40;10.55;;;2.08;;
59512;SDS011;45330;51.634;5.562;2022-12-07T14:50:06;7.22;;;1.90;;
59512;SDS011;45330;51.634;5.562;2022-12-07T14:52:32;8.40;;;2.00;;
59512;SDS011;45330;51.634;5.562;2022-12-07T14:54:58;10.52;;;1.88;;
59512;SDS011;45330;51.634;5.562;2022-12-07T14:57:23;8.45;;;2.00;;
59512;SDS011;45330;51.634;5.562;2022-12-07T14:59:49;11.65;;;2.15;;
59512;SDS011;45330;51.634;5.562;2022-12-07T15:02:14;9.50;;;2.47;;
59512;SDS011;45330;51.634;5.562;2022-12-07T15:04:40;11.30;;;2.30;;
59512;SDS011;45330;51.634;5.562;2022-12-07T15:07:08;7.35;;;2.22;;
59512;SDS011;45330;51.634;5.562;2022-12-07T15:09:37;12.05;;;2.08;;
59512;SDS011;45330;51.634;5.562;2022-12-07T15:12:03;6.10;;;1.90;;
59512;SDS011;45330;51.634;5.562;2022-12-07T15:14:28;9.20;;;2.20;;
59512;SDS011;45330;51.634;5.562;2022-12-07T15:16:54;11.88;;;2.75;;
59512;SDS011;45330;51.634;5.562;2022-12-07T15:19:22;10.73;;;2.58;;
59512;SDS011;45330;51.634;5.562;2022-12-07T15:21:50;5.63;;;2.50;;
59512;SDS011;45330;51.634;5.562;2022-12-07T15:24:16;10.02;;;2.45;;
59512;SDS011;45330;51.634;5.562;2022-12-07T15:26:42;9.05;;;2.40;;
59512;SDS011;45330;51.634;5.562;2022-12-07T15:29:07;11.52;;;2.47;;
59512;SDS011;45330;51.634;5.562;2022-12-07T15:31:33;12.98;;;3.20;;
59512;SDS011;45330;51.634;5.562;2022-12-07T15:33:59;12.23;;;3.97;;
59512;SDS011;45330;51.634;5.562;2022-12-07T15:36:26;13.23;;;3.60;;
59512;SDS011;45330;51.634;5.562;2022-12-07T15:38:53;13.88;;;3.50;;
59512;SDS011;45330;51.634;5.562;2022-12-07T15:41:20;10.20;;;3.05;;
59512;SDS011;45330;51.634;5.562;2022-12-07T15:43:46;9.93;;;2.70;;
59512;SDS011;45330;51.634;5.562;2022-12-07T15:46:30;9.60;;;2.88;;
59512;SDS011;45330;51.634;5.562;2022-12-07T15:48:58;7.13;;;2.67;;
59512;SDS011;45330;51.634;5.562;2022-12-07T15:51:24;7.72;;;2.75;;
59512;SDS011;45330;51.634;5.562;2022-12-07T15:53:50;9.75;;;2.80;;
59512;SDS011;45330;51.634;5.562;2022-12-07T15:56:15;6.50;;;2.60;;
59512;SDS011;45330;51.634;5.562;2022-12-07T15:58:41;11.07;;;2.85;;
59512;SDS011;45330;51.634;5.562;2022-12-07T16:01:13;12.38;;;2.90;;
59512;SDS011;45330;51.634;5.562;2022-12-07T16:03:40;10.65;;;2.65;;
59512;SDS011;45330;51.634;5.562;2022-12-07T16:06:06;7.80;;;2.70;;
59512;SDS011;45330;51.634;5.562;2022-12-07T16:08:31;5.35;;;2.72;;
59512;SDS011;45330;51.634;5.562;2022-12-07T16:10:57;5.45;;;2.80;;
59512;SDS011;45330;51.634;5.562;2022-12-07T16:13:22;8.15;;;3.40;;
59512;SDS011;45330;51.634;5.562;2022-12-07T16:15:47;9.82;;;3.40;;
59512;SDS011;45330;51.634;5.562;2022-12-07T16:18:13;10.90;;;3.50;;
59512;SDS011;45330;51.634;5.562;2022-12-07T16:20:38;10.52;;;3.58;;
59512;SDS011;45330;51.634;5.562;2022-12-07T16:23:04;14.68;;;3.78;;
59512;SDS011;45330;51.634;5.562;2022-12-07T16:25:30;8.20;;;3.33;;
59512;SDS011;45330;51.634;5.562;2022-12-07T16:27:55;11.48;;;4.10;;
59512;SDS011;45330;51.634;5.562;2022-12-07T16:30:21;9.23;;;3.80;;
59512;SDS011;45330;51.634;5.562;2022-12-07T16:32:46;11.82;;;4.03;;
59512;SDS011;45330;51.634;5.562;2022-12-07T16:35:12;14.25;;;4.82;;
59512;SDS011;45330;51.634;5.562;2022-12-07T16:37:37;13.95;;;4.93;;
59512;SDS011;45330;51.634;5.562;2022-12-07T16:40:03;13.27;;;4.95;;
59512;SDS011;45330;51.634;5.562;2022-12-07T16:42:33;16.13;;;5.70;;
59512;SDS011;45330;51.634;5.562;2022-12-07T16:44:59;16.02;;;5.53;;
59512;SDS011;45330;51.634;5.562;2022-12-07T16:47:25;15.65;;;5.93;;
59512;SDS011;45330;51.634;5.562;2022-12-07T16:49:50;15.82;;;5.85;;
59512;SDS011;45330;51.634;5.562;2022-12-07T16:52:17;16.52;;;6.40;;
59512;SDS011;45330;51.634;5.562;2022-12-07T16:54:43;17.77;;;6.75;;
59512;SDS011;45330;51.634;5.562;2022-12-07T16:57:08;18.80;;;7.93;;
59512;SDS011;45330;51.634;5.562;2022-12-07T16:59:34;18.77;;;7.15;;
59512;SDS011;45330;51.634;5.562;2022-12-07T17:01:59;20.52;;;7.70;;
59512;SDS011;45330;51.634;5.562;2022-12-07T17:04:24;20.15;;;8.57;;
59512;SDS011;45330;51.634;5.562;2022-12-07T17:06:50;20.83;;;8.82;;
59512;SDS011;45330;51.634;5.562;2022-12-07T17:09:15;19.58;;;8.40;;